Singapore Changi International Airport
WSSS : now visible

Airfield :











YOU CAN JOIN US ON...

 
LOGIN :

Register | Disclaimer

   EN    FR    IT 

 









Legend :    VFR   Marginal VFR   IFR   Intensive IFR   Very Intensive IFR
Visi :
Ceiling :
>= 8 km
>= 3000ft
5 to 8 km
1000 to 3000 ft
1500m to 5 km
500 to 1000 ft
800 to 1500m
200 to 500 ft
< 800m
< 200 ft
Symbols :   Thunderstorms  Fog  Heavy snow  Heavy precipitations  Wind > 20 kt






- Airport Elevation : 22 ft
- IATA code : SIN


WSSS - Singapore Changi International

CURRENT METAR :
  • 261130Z 03007KT 9999 FEW018 BKN300 30/24 Q1007 NOSIG

EXPIRED METARs :
  • 261100Z 02008KT 350V050 9999 FEW018 FEW020CB BKN300 30/24 Q1006 NOSIG
  • 261030Z 02010KT 9999 FEW018 FEW020CB BKN300 30/23 Q1006 NOSIG
  • 261000Z 03010KT 010V070 9999 FEW018 FEW020CB BKN300 31/23 Q1005 NOSIG
  • 260930Z 04011KT 360V060 9999 FEW018 FEW020CB BKN300 31/23 Q1005 NOSIG
  • 260900Z 04009KT 010V070 9999 FEW018TCU FEW020CB BKN300 32/24 Q1005 NOSIG

TAF TAF WSSS
Valid from the 26 at 12:00 until the 27 at 18:00 UTC


261100Z 2612/2718 02008KT 9999 FEW015 SCT020
TEMPO 2706/2710 3000 TSRA FEW012CB BKN015
WSJC FIR / Asia



MET'MAP, your aeronautical weather chart ! - Copyright ORBIFLY December 2007 - Disclaimer

ORBIFLY MET'MAP TEAM :

Programming & Development : Alexandra Zaïnal
Concept & original design : Baudouin d'Aumeries
Assistance for programming : Marc-Olivier Méhu
Technical & hardware support : Manuel Goepfert

Contact : metmap@orbifly.com




SOURCES & CREDITS :

   NOAA       Earth
Advisory